Free Trial

Pure Cycle (PCYO) Institutional Ownership

Pure Cycle logo
$11.48 +0.08 (+0.70%)
Closing price 04:00 PM Eastern
Extended Trading
$11.46 -0.03 (-0.22%)
As of 04:42 PM Eastern
Extended trading is trading that happens on electronic markets outside of regular trading hours. This is a fair market value extended hours price provided by Massive. Learn more.

Institutional Ownership Changes (13F Filings) for Pure Cycle (NASDAQ:PCYO)

Current
Institutional Ownership
Percentage
51.39%
Number of
Institutional Buyers
(last 12 months)
40
Total
Institutional Inflows
(last 12 months)
$21.05M
Number of
Institutional Sellers
(last 12 months)
35
Total
Institutional Outflows
(last 12 months)
$10.94M
Get PCYO Insider Trade Alerts

Want to know when executives and insiders are buying or selling Pure Cycle stock? Sign up for InsiderTrades.com's daily newsletter to get the latest insider transactions delivered to your inbox daily.

SMS is currently available in Australia, Belgium, Canada, France, Germany, Ireland, Italy, New Zealand, the Netherlands, Singapore, South Africa, Spain, Switzerland, the United Kingdom, and the United States. By entering your phone number and clicking the sign-up button, you agree to receive periodic text messages from MarketBeat at the phone number you submitted, including texts that may be sent using an automatic telephone dialing system. Message and data rates may apply. Message frequency will vary. Messages will consist of stock alerts, news stories, and partner advertisements/offers. Consent is not a condition of the purchase of any goods or services. Text HELP for help/customer support. Unsubscribe at any time by replying "STOP" to any text message that you receive from MarketBeat or by visiting our mailing preferences page. Read our full terms of service and privacy policy.
Skip Chart & View Institutional Buying and Selling Data

PCYO Institutional Buying and Selling by Quarter

Pure Cycle Major Shareholders & Ownership History

Reporting DateMajor Shareholder NameShares HeldMarket Value% of PortfolioQuarterly Change in SharesOwnership in CompanyDetails
5/5/2026Bank of New York Mellon Corp77,410$779K0.0%-1.5%0.321%
4/28/2026 Whittier Trust Co.15,240$158K0.0%+48.8%0.063%
4/25/2026 Magnolia Group LLC1,914,559$19.26M3.6%-4.9%7.944%
4/23/2026 North Star Investment Management Corp.82,000$825K0.0%N/A0.340%
2/18/2026First Manhattan CO. LLC.56,725$623K0.0%-3.4%0.235%
2/17/2026AQR Capital Management LLC20,007$220K0.0%+11.1%0.083%
2/17/2026ArrowMark Colorado Holdings LLC628,599$6.91M0.2%-6.6%2.609%
2/17/2026Royal Bank of Canada9,417$103K0.0%-73.0%0.039%
2/17/2026Blair William & Co. IL152,192$1.67M0.0%-1.5%0.632%
2/17/2026Rothschild Wealth LLC43,532$478K0.0%N/A0.181%
2/16/2026Squarepoint Ops LLC12,500$137K0.0%+24.8%0.052%
2/16/2026MYDA Advisors LLC300,000$3.30M0.6%-3.6%1.245%
2/16/2026Kennedy Capital Management LLC516,127$5.67M0.1%-0.7%2.142%
2/16/2026Arax Advisory Partners4,851$53K0.0%-55.4%0.020%
2/16/2026Barclays PLC32,583$358K0.0%+16.8%0.135%
2/16/2026Bard Associates Inc.321,258$3.53M0.9%-5.1%1.334%
2/13/2026Marshall Wace LLP36,381$400K0.0%N/A0.151%
2/13/2026Stifel Financial Corp11,673$128K0.0%-39.0%0.048%
2/13/2026 Police & Firemen s Retirement System of New Jersey3,816$42K0.0%-46.3%0.016%
2/13/2026Boston Partners219,802$2.42M0.0%+10.0%0.912%
2/13/2026Wells Fargo & Company MN23,375$257K0.0%+53.9%0.097%
2/12/2026Jane Street Group LLC23,450$258K0.0%-22.6%0.097%
2/12/2026Renaissance Technologies LLC61,300$674K0.0%-2.5%0.254%
2/12/2026Dimensional Fund Advisors LP449,988$4.95M0.0%-1.2%1.868%
2/12/2026First Wilshire Securities Management Inc.370,660$4.07M1.0%+130.7%1.539%
2/11/2026Deutsche Bank AG14,211$156K0.0%+437.9%0.059%
2/11/2026Potomac Capital Management Inc.48,756$536K0.4%N/A0.202%
2/10/2026Goldman Sachs Group Inc.118,235$1.30M0.0%+53.0%0.491%
2/9/2026Geode Capital Management LLC520,873$5.73M0.0%+2.6%2.162%
2/6/2026Diamond Hill Capital Management Inc.75,739$832K0.0%-4.6%0.314%
2/3/2026 Magnolia Group LLC2,013,106$22.12M3.6%-3.4%8.357%
2/2/2026 Strs Ohio48,000$528K0.0%-1.8%0.199%
1/12/2026 Avanza Fonder AB33,571$369K0.0%-4.0%0.139%
1/7/2026 Epiq Partners LLC256,657$2.82M1.3%-1.0%1.065%
1/1/2026JPMorgan Chase & Co.10,984$122K0.0%+16.1%0.046%
11/17/2025Perritt Capital Management Inc43,532$482K0.2%-90.4%0.181%
11/17/2025MIRAE ASSET GLOBAL ETFS HOLDINGS Ltd.9,271$103K0.0%-14.4%0.038%
11/17/2025Bard Associates Inc.338,371$3.75M1.0%-1.7%1.405%
11/17/2025ArrowMark Colorado Holdings LLC672,927$7.45M0.1%+14.3%2.794%
11/17/2025Alliancebernstein L.P.20,320$225K0.0%+8.5%0.084%
11/14/2025Squarepoint Ops LLC10,017$111K0.0%-76.1%0.042%
11/13/2025Boston Partners199,908$2.21M0.0%+6.6%0.830%
11/13/2025Kennedy Capital Management LLC519,795$5.75M0.1%-0.9%2.159%
11/13/2025BNP Paribas Financial Markets3,878$43K0.0%+64.0%0.016%
11/13/2025Russell Investments Group Ltd.2,634$29K0.0%+143.4%0.011%
11/13/2025Blair William & Co. IL154,533$1.71M0.0%-1.4%0.642%
11/12/2025 Epiq Partners LLC259,244$2.87M1.4%+1.4%1.077%
11/7/2025Vanguard Group Inc.1,165,271$12.90M0.0%+2.1%4.840%
11/7/2025JPMorgan Chase & Co.10,984$122K0.0%+16.1%0.046%
11/7/2025PNC Financial Services Group Inc.12,167$135K0.0%+97.2%0.051%
11/6/2025Rhumbline Advisers31,059$344K0.0%-23.3%0.129%
11/5/2025Diamond Hill Capital Management Inc.79,413$879K0.0%+14.5%0.330%
11/4/2025Ashton Thomas Private Wealth LLC70,487$780K0.0%N/A0.293%
10/17/2025 Tealwood Asset Management Inc.195,146$2.16M0.9%+75.0%0.811%
10/17/2025 Sapient Capital LLC692,584$7.61M0.1%-1.5%2.877%
8/15/2025Lazard Asset Management LLC5,735$61K0.0%+11,145.1%0.024%
8/15/2025Curi Capital LLC672,048$7.20M0.1%+319.5%2.792%
8/15/2025Bank of America Corp DE12,170$130K0.0%-29.3%0.051%
8/14/2025MIRAE ASSET GLOBAL ETFS HOLDINGS Ltd.10,835$116K0.0%-12.4%0.045%
8/14/2025First Wilshire Securities Management Inc.118,547$1.27M0.3%N/A0.493%
8/13/2025Marshall Wace LLP26,736$287K0.0%+120.2%0.111%
8/13/2025Kennedy Capital Management LLC524,763$5.63M0.1%+2.4%2.180%
8/12/2025Boston Partners187,565$2.01M0.0%+49.1%0.779%
8/12/2025Horizon Kinetics Asset Management LLC14,511$156K0.0%N/A0.060%
8/12/2025Rhumbline Advisers40,489$434K0.0%+20.4%0.168%
8/12/2025JPMorgan Chase & Co.9,463$101K0.0%-57.2%0.039%
8/8/2025Geode Capital Management LLC510,731$5.48M0.0%-0.8%2.122%
8/8/2025PNC Financial Services Group Inc.6,169$66K0.0%-27.9%0.026%
8/8/2025Kelleher Financial Advisors10,000$107K0.0%N/A0.042%
8/7/2025Boston Partners187,565$2.01M0.0%+49.1%0.779%
8/7/2025Los Angeles Capital Management LLC32,950$353K0.0%+79.0%0.137%
7/25/2025NorthRock Partners LLC10,000$108K0.0%N/A0.042%
7/25/2025 Concurrent Investment Advisors LLC11,000$118K0.0%-8.3%0.046%
7/24/2025Blair William & Co. IL156,706$1.68M0.0%-3.2%0.651%
7/24/2025Leo Wealth LLC22,319$239K0.0%N/A0.093%
7/17/2025 Tealwood Asset Management Inc.111,532$1.20M0.5%-1.5%0.463%
7/16/2025 EdgeRock Capital LLC31,333$336K0.1%N/A0.130%
7/15/2025 Beacon Investment Advisory Services Inc.14,166$152K0.0%+7.6%0.059%
7/15/2025 Wealth Effects LLC21,000$225K0.1%-33.0%0.087%
7/14/2025Clear Harbor Asset Management LLC31,886$342K0.0%-3.0%0.132%
7/9/2025 Sapient Capital LLC703,082$7.54M0.1%-0.2%2.920%
7/9/2025 Epiq Partners LLC255,540$2.74M1.4%-7.0%1.061%
6/27/2025Goldman Sachs Group Inc.131,836$1.38M0.0%+39.0%0.547%
5/29/2025Rhumbline Advisers33,633$352K0.0%-3.3%0.140%
5/28/2025Strs Ohio43,100$451K0.0%N/A0.179%
5/19/2025Jane Street Group LLC19,219$201K0.0%N/A0.080%
5/16/2025Goldman Sachs Group Inc.131,836$1.38M0.0%+39.0%0.548%
5/16/2025Curi RMB Capital LLC160,211$1.68M0.0%-41.8%0.665%
5/15/2025First Manhattan CO. LLC.60,225$631K0.0%+2.7%0.250%
5/15/2025Royal Bank of Canada29,844$313K0.0%-5.0%0.124%
5/15/2025MYDA Advisors LLC160,000$1.68M0.3%-11.1%0.665%
5/13/2025Boston Partners125,781$1.32M0.0%-2.4%0.522%
5/12/2025Nuveen LLC84,521$885K0.0%N/A0.351%
5/12/2025Bard Associates Inc.363,524$3.81M1.4%-1.7%1.510%
5/9/2025Blair William & Co. IL161,827$1.69M0.0%-1.8%0.672%
5/6/2025Diamond Hill Capital Management Inc.67,219$704K0.0%+5.2%0.279%
5/6/2025Beacon Investment Advisory Services Inc.13,166$138K0.0%-9.2%0.055%
4/29/2025Bank of New York Mellon Corp69,625$729K0.0%-1.5%0.289%
4/23/2025Wealth Effects LLC31,350$328K0.1%-4.6%0.130%
4/15/2025Sapient Capital LLC704,328$7.37M0.1%-1.1%2.925%


PCYO Institutional Ownership - Frequently Asked Questions

Who are the largest shareholders of PCYO shares?

During the previous two years, 75 institutional investors and hedge funds held shares of Pure Cycle. The most heavily invested institutionals were Magnolia Group LLC ($19.26M), Vanguard Group Inc. ($12.90M), Heartland Advisors Inc. ($7.95M), Sapient Capital LLC ($7.61M), Curi Capital LLC ($7.20M), ArrowMark Colorado Holdings LLC ($6.91M), and Loomis Sayles & Co. L P ($5.96M).Learn more on Pure Cycle's institutional investors.

What percentage of Pure Cycle's stock is owned by institutional investors?

51.39% of Pure Cycle's stock is owned by institutional investors. Learn more on PCYO's institutional investor holdings.

Which institutional investors have been buying Pure Cycle's stock?

Of the 58 institutional investors that purchased Pure Cycle's stock in the last 24 months, the following investors and hedge funds have bought the highest volume of shares: Curi Capital LLC ($511.84K), First Wilshire Securities Management Inc. ($328.54K), Magnolia Group LLC ($306.21K), Tealwood Asset Management Inc. ($286.77K), Boston Partners ($155.81K), Goldman Sachs Group Inc. ($115.01K), and Heartland Advisors Inc. ($93.50K).

How much institutional buying is happening at Pure Cycle?

Institutional investors have bought a total of 1,953,589 shares in the last 24 months. This purchase volume represents approximately $21.05M in transactions.

Which of Pure Cycle's major shareholders have been selling company stock?

Of the 34 institutional investors that sold Pure Cycle's stock in the last 24 months, the following investors and hedge funds have sold the highest volume of shares: Perritt Capital Management Inc ($410.27K), Magnolia Group LLC ($168.85K), Curi RMB Capital LLC ($115.19K), ArrowMark Colorado Holdings LLC ($44.33K), Squarepoint Ops LLC ($31.93K), MYDA Advisors LLC ($31.10K), and Bard Associates Inc. ($29.20K).

How much institutional selling is happening at Pure Cycle?

Institutional investors have sold a total of 1,007,642 shares in the last 24 months. This volume of shares sold represents approximately $10.92M in transactions.



This page (NASDAQ:PCYO) was last updated on 5/5/2026 by MarketBeat.com Staff.
From Our Partners